Time;durP1;ratioP1;P1;durP2;ratioP2;P2;SDS_P1;SDS_P2;PMS_P1;PMS_P2;Temp;Humidity;BMP_temperature;BMP_pressure;BME280_temperature;BME280_humidity;BME280_pressure;Samples;Min_cycle;Max_cycle;Signal;HPM_P1;HPM_P2
2022/01/06 05:01:05;;;;;;;17.00;5.90;;;2.90;99.90;;;;;;5721101;23;20491;-75
2022/01/06 05:03:32;;;;;;;17.60;7.10;;;2.90;99.90;;;;;;4992638;28;21018;-75
2022/01/06 05:05:59;;;;;;;13.10;7.23;;;3.00;99.90;;;;;;4992946;28;20550;-75
2022/01/06 05:08:26;;;;;;;17.17;6.10;;;2.90;99.90;;;;;;4992486;28;20577;-75
2022/01/06 05:10:53;;;;;;;19.20;6.30;;;3.00;99.90;;;;;;4992261;28;20475;-75
2022/01/06 05:15:48;;;;;;;16.57;6.10;;;3.00;99.90;;;;;;4974324;28;20480;-78
2022/01/06 05:18:16;;;;;;;13.20;6.40;;;3.00;99.90;;;;;;4975536;28;20543;-79
2022/01/06 05:20:43;;;;;;;13.60;6.23;;;3.10;99.90;;;;;;4975443;28;20542;-79
2022/01/06 05:23:11;;;;;;;12.40;6.83;;;3.20;99.90;;;;;;4975374;28;20463;-78
2022/01/06 05:25:39;;;;;;;18.50;7.13;;;3.20;99.90;;;;;;4974740;28;20479;-78
2022/01/06 05:28:06;;;;;;;9.23;5.90;;;3.30;99.90;;;;;;4975193;28;20496;-78
2022/01/06 05:30:33;;;;;;;12.73;5.00;;;3.30;99.90;;;;;;4975329;28;20547;-78
2022/01/06 05:32:59;;;;;;;16.03;5.87;;;3.40;99.90;;;;;;4975539;28;20543;-79
2022/01/06 05:35:28;;;;;;;19.63;6.40;;;3.40;99.90;;;;;;4973242;28;20551;-78
2022/01/06 05:37:55;;;;;;;15.37;5.90;;;3.30;99.90;;;;;;4972775;28;20534;-78
2022/01/06 05:40:22;;;;;;;20.53;6.30;;;3.30;99.90;;;;;;4972793;28;20540;-79
2022/01/06 05:42:49;;;;;;;14.70;6.37;;;3.30;99.90;;;;;;4973027;28;20455;-78
2022/01/06 05:45:17;;;;;;;15.60;5.97;;;3.30;99.90;;;;;;4973249;28;20487;-78
2022/01/06 05:47:44;;;;;;;13.67;6.60;;;3.30;99.90;;;;;;4972685;28;20823;-79
2022/01/06 05:50:11;;;;;;;15.37;6.60;;;3.30;99.90;;;;;;4972574;28;20526;-78
2022/01/06 05:52:39;;;;;;;16.00;6.47;;;3.20;99.90;;;;;;4973099;28;20535;-79
2022/01/06 05:55:07;;;;;;;11.20;6.37;;;3.20;99.90;;;;;;4972840;28;20485;-78
2022/01/06 05:57:34;;;;;;;13.23;5.83;;;3.10;99.90;;;;;;4972654;28;20987;-79
2022/01/06 06:00:01;;;;;;;13.67;6.30;;;3.10;99.90;;;;;;4972645;28;20535;-79
2022/01/06 06:02:28;;;;;;;17.27;5.63;;;3.10;99.90;;;;;;4973091;28;20483;-78
2022/01/06 06:04:54;;;;;;;12.50;6.00;;;3.20;99.90;;;;;;4972573;28;20908;-78
2022/01/06 06:07:21;;;;;;;14.00;6.50;;;3.20;99.90;;;;;;4972844;28;20547;-78
2022/01/06 06:09:50;;;;;;;17.80;6.87;;;3.10;99.90;;;;;;4972449;28;20487;-80
2022/01/06 06:12:17;;;;;;;12.13;6.80;;;3.10;99.90;;;;;;4972859;28;20839;-79
2022/01/06 06:14:43;;;;;;;23.93;7.00;;;3.20;99.90;;;;;;4972546;28;20498;-78
2022/01/06 06:17:11;;;;;;;19.10;6.60;;;3.20;99.90;;;;;;4972684;28;20821;-78
2022/01/06 06:19:37;;;;;;;11.23;6.20;;;3.30;99.90;;;;;;4972146;28;20538;-79
2022/01/06 06:22:05;;;;;;;13.03;7.00;;;3.40;99.90;;;;;;4972741;28;20535;-79
2022/01/06 06:24:33;;;;;;;12.23;6.60;;;3.40;99.90;;;;;;4972550;28;20890;-79
2022/01/06 06:27:01;;;;;;;10.57;6.00;;;3.40;99.90;;;;;;4972420;28;20484;-79
2022/01/06 06:29:28;;;;;;;15.03;7.10;;;3.40;99.90;;;;;;4972048;28;21030;-78
2022/01/06 06:31:55;;;;;;;12.07;6.67;;;3.40;99.90;;;;;;4975689;28;20534;-79
2022/01/06 06:34:22;;;;;;;18.60;6.77;;;3.50;99.90;;;;;;4975612;28;20558;-79
2022/01/06 06:36:49;;;;;;;12.00;6.97;;;3.50;99.90;;;;;;4976194;28;20528;-78
2022/01/06 06:39:16;;;;;;;12.60;6.87;;;3.50;99.90;;;;;;4975686;28;20528;-78
2022/01/06 06:41:43;;;;;;;16.93;7.43;;;3.50;99.90;;;;;;4975920;28;20544;-78
2022/01/06 06:44:11;;;;;;;13.63;7.37;;;3.40;99.90;;;;;;4975599;28;21066;-79
2022/01/06 06:46:38;;;;;;;14.10;6.83;;;3.40;99.90;;;;;;4975511;28;20916;-78
2022/01/06 06:49:05;;;;;;;14.70;7.03;;;3.40;99.90;;;;;;4975517;28;20525;-78
2022/01/06 06:51:32;;;;;;;19.17;7.40;;;3.40;99.90;;;;;;4975775;28;20547;-79
2022/01/06 06:53:59;;;;;;;12.27;5.80;;;3.40;99.90;;;;;;4975434;28;20483;-78
2022/01/06 06:56:25;;;;;;;15.43;6.97;;;3.40;99.90;;;;;;4975611;28;20832;-78
2022/01/06 06:58:52;;;;;;;22.63;6.60;;;3.40;99.90;;;;;;4975210;28;20542;-79
2022/01/06 07:01:21;;;;;;;13.87;5.87;;;3.50;99.90;;;;;;4975760;28;20539;-79
2022/01/06 07:03:48;;;;;;;14.07;6.80;;;3.50;99.90;;;;;;4975658;28;20923;-78
2022/01/06 07:06:15;;;;;;;17.50;6.20;;;3.60;99.90;;;;;;4975384;28;21001;-79
2022/01/06 07:08:42;;;;;;;16.17;7.10;;;3.60;99.90;;;;;;4975319;28;21020;-78
2022/01/06 07:11:08;;;;;;;13.43;6.53;;;3.50;99.90;;;;;;4975237;28;20546;-79
2022/01/06 07:13:35;;;;;;;15.43;6.57;;;3.50;99.90;;;;;;4975531;28;20546;-79
2022/01/06 07:16:02;;;;;;;14.03;6.70;;;3.50;99.90;;;;;;4974958;28;20540;-78
2022/01/06 07:18:30;;;;;;;14.37;6.30;;;3.50;99.90;;;;;;4975250;28;20510;-76
2022/01/06 07:20:58;;;;;;;12.77;6.80;;;3.50;99.90;;;;;;4975062;28;20531;-76
2022/01/06 07:23:25;;;;;;;10.07;6.50;;;3.60;99.90;;;;;;4974887;28;20463;-76
2022/01/06 07:25:52;;;;;;;12.37;6.97;;;3.50;99.90;;;;;;4975023;28;20460;-76
2022/01/06 07:28:18;;;;;;;15.83;6.90;;;3.50;99.90;;;;;;4974708;28;20542;-76
2022/01/06 07:30:45;;;;;;;19.30;7.50;;;3.40;99.90;;;;;;4974807;28;21019;-76
2022/01/06 07:33:12;;;;;;;15.07;6.53;;;3.40;99.90;;;;;;4974810;28;21026;-76
2022/01/06 07:35:40;;;;;;;27.47;7.97;;;3.40;99.90;;;;;;4974870;28;20559;-76
2022/01/06 07:38:07;;;;;;;16.20;7.47;;;3.40;99.90;;;;;;4974597;28;20551;-77
2022/01/06 07:40:34;;;;;;;16.50;6.70;;;3.40;99.90;;;;;;4974940;28;20531;-76
2022/01/06 07:43:01;;;;;;;17.80;7.90;;;3.30;99.90;;;;;;4973458;28;20479;-76
2022/01/06 07:45:28;;;;;;;19.10;7.53;;;3.30;99.90;;;;;;4974668;28;20554;-76
2022/01/06 07:47:57;;;;;;;10.63;7.10;;;3.20;99.90;;;;;;4974705;28;20496;-76
2022/01/06 07:50:26;;;;;;;17.57;7.70;;;3.10;99.90;;;;;;4974160;28;20897;-76
2022/01/06 07:52:55;;;;;;;13.43;7.13;;;3.00;99.90;;;;;;4974535;28;20542;-76
2022/01/06 07:55:22;;;;;;;20.90;7.90;;;3.00;99.90;;;;;;4974220;28;20562;-76
2022/01/06 07:57:50;;;;;;;14.10;7.70;;;3.00;99.90;;;;;;4974188;28;20495;-76
2022/01/06 08:00:18;;;;;;;16.13;8.30;;;3.00;99.90;;;;;;4974157;28;20452;-76
2022/01/06 08:02:45;;;;;;;20.27;8.10;;;3.10;99.90;;;;;;4974172;28;20538;-76
2022/01/06 08:05:14;;;;;;;17.17;8.83;;;3.00;99.90;;;;;;4974095;28;20507;-76
2022/01/06 08:07:41;;;;;;;20.23;8.80;;;3.00;99.90;;;;;;4974088;28;20456;-77
2022/01/06 08:10:10;;;;;;;12.13;7.93;;;3.00;99.90;;;;;;4973608;28;20502;-76
2022/01/06 08:12:38;;;;;;;25.70;10.00;;;3.00;99.90;;;;;;4974083;28;20535;-76
2022/01/06 08:15:06;;;;;;;21.27;8.70;;;3.00;99.90;;;;;;4973790;28;20490;-76
2022/01/06 08:17:33;;;;;;;18.37;8.70;;;3.00;99.90;;;;;;4973833;28;20905;-76
2022/01/06 08:20:00;;;;;;;24.27;10.33;;;3.00;99.90;;;;;;4973873;28;20514;-76
2022/01/06 08:22:29;;;;;;;17.17;8.10;;;3.00;99.90;;;;;;4973794;28;20837;-76
2022/01/06 08:24:56;;;;;;;22.13;8.47;;;3.00;99.90;;;;;;4973668;28;20546;-76
2022/01/06 08:27:24;;;;;;;19.10;9.00;;;3.00;99.90;;;;;;4974021;28;20458;-76
2022/01/06 08:29:52;;;;;;;19.40;9.03;;;3.10;99.90;;;;;;4973579;28;20495;-76
2022/01/06 08:32:19;;;;;;;23.73;9.53;;;3.10;99.90;;;;;;4973894;28;20452;-76
2022/01/06 08:34:46;;;;;;;18.07;8.40;;;3.10;99.90;;;;;;4973691;28;20567;-76
2022/01/06 08:37:13;;;;;;;16.83;8.07;;;3.00;99.90;;;;;;4973938;28;20535;-76
2022/01/06 08:39:40;;;;;;;18.70;9.43;;;3.10;99.90;;;;;;4973584;28;20527;-76
2022/01/06 08:42:08;;;;;;;21.90;8.47;;;3.10;99.90;;;;;;4973803;28;20534;-76
2022/01/06 08:44:39;;;;;;;22.13;10.27;;;3.10;99.90;;;;;;4973558;28;20534;-76
2022/01/06 08:47:06;;;;;;;18.70;9.40;;;3.10;99.90;;;;;;4973541;28;20519;-76
2022/01/06 08:49:34;;;;;;;13.67;7.27;;;3.10;99.90;;;;;;4973095;28;21030;-76
2022/01/06 08:52:01;;;;;;;15.77;8.03;;;3.10;99.90;;;;;;4973264;28;20531;-76
2022/01/06 08:54:28;;;;;;;18.13;7.93;;;3.10;99.90;;;;;;4973115;28;20640;-76
2022/01/06 08:56:55;;;;;;;18.13;8.37;;;3.10;99.90;;;;;;4973343;28;20807;-76
2022/01/06 08:59:21;;;;;;;18.10;8.03;;;3.10;99.90;;;;;;4973176;28;20527;-76
2022/01/06 09:01:50;;;;;;;21.90;8.77;;;3.10;99.90;;;;;;4973734;28;20532;-77
2022/01/06 09:04:20;;;;;;;12.67;8.10;;;3.10;99.90;;;;;;4973013;28;20909;-76
2022/01/06 09:06:48;;;;;;;14.17;9.07;;;3.20;99.90;;;;;;4973370;28;20455;-78
2022/01/06 09:09:15;;;;;;;20.57;10.17;;;3.20;99.90;;;;;;4972861;28;21014;-76
2022/01/06 09:11:42;;;;;;;20.90;9.40;;;3.20;99.90;;;;;;4973255;28;20546;-76
2022/01/06 09:14:09;;;;;;;19.37;10.00;;;3.20;99.90;;;;;;4972934;28;20991;-76
2022/01/06 09:16:37;;;;;;;24.47;9.37;;;3.20;99.90;;;;;;4973076;28;20452;-76
2022/01/06 09:19:05;;;;;;;19.13;10.00;;;3.30;99.90;;;;;;4973074;28;20930;-76
2022/01/06 09:21:32;;;;;;;17.77;8.77;;;3.30;99.90;;;;;;4973083;28;20547;-76
2022/01/06 09:24:01;;;;;;;26.53;8.80;;;3.30;99.90;;;;;;4973245;28;20508;-76
2022/01/06 09:26:28;;;;;;;21.83;9.73;;;3.30;99.90;;;;;;4973207;28;20460;-76
2022/01/06 09:28:55;;;;;;;21.80;9.30;;;3.30;99.90;;;;;;4972553;28;20535;-76
2022/01/06 09:31:22;;;;;;;15.83;8.87;;;3.30;99.90;;;;;;4972736;28;20542;-76
2022/01/06 09:33:49;;;;;;;15.97;8.53;;;3.30;99.90;;;;;;4972803;28;21031;-76
2022/01/06 09:36:17;;;;;;;20.40;9.20;;;3.30;99.90;;;;;;4973013;28;20460;-76
2022/01/06 09:38:45;;;;;;;16.33;9.00;;;3.30;99.90;;;;;;4972742;28;20972;-76
2022/01/06 09:41:14;;;;;;;20.60;9.83;;;3.40;99.90;;;;;;4972967;28;20448;-76
2022/01/06 09:43:43;;;;;;;20.63;8.87;;;3.40;99.90;;;;;;4972815;28;20468;-76
2022/01/06 09:46:11;;;;;;;18.00;8.73;;;3.40;99.90;;;;;;4972877;28;20487;-76
2022/01/06 09:48:39;;;;;;;24.33;9.23;;;3.40;99.90;;;;;;4972918;28;20546;-76
2022/01/06 09:51:06;;;;;;;28.40;10.40;;;3.50;99.90;;;;;;4972681;28;20583;-77
2022/01/06 09:53:35;;;;;;;16.20;8.77;;;3.50;99.90;;;;;;4972713;28;20884;-76
2022/01/06 09:56:02;;;;;;;18.93;9.20;;;3.50;99.90;;;;;;4972814;28;20462;-76
2022/01/06 09:58:30;;;;;;;19.17;8.20;;;3.50;99.90;;;;;;4972393;28;21011;-76
2022/01/06 10:00:58;;;;;;;14.27;8.00;;;3.50;99.90;;;;;;4972493;28;20534;-76
2022/01/06 10:03:33;;;;;;;20.03;8.50;;;3.50;99.90;;;;;;4972757;28;20506;-76
2022/01/06 10:06:11;;;;;;;15.10;8.90;;;3.50;99.90;;;;;;4974721;28;20465;-77
2022/01/06 10:08:39;;;;;;;21.57;8.77;;;3.60;99.90;;;;;;4976235;28;20458;-76
2022/01/06 10:11:24;;;;;;;17.43;9.30;;;3.60;99.90;;;;;;4975933;28;21106;-78
2022/01/06 10:13:58;;;;;;;19.63;9.00;;;3.60;99.90;;;;;;4976316;28;20482;-77
2022/01/06 10:16:25;;;;;;;16.80;8.27;;;3.50;99.90;;;;;;4976139;28;20845;-77
2022/01/06 10:19:02;;;;;;;17.77;9.07;;;3.50;99.90;;;;;;4975988;28;20490;-76
2022/01/06 10:21:36;;;;;;;15.57;8.30;;;3.50;99.90;;;;;;4975974;28;20555;-76
2022/01/06 10:24:07;;;;;;;20.40;9.30;;;3.60;99.90;;;;;;4976183;28;20490;-76
2022/01/06 10:26:34;;;;;;;20.73;8.40;;;3.60;99.90;;;;;;4976303;28;20543;-76
2022/01/06 10:29:02;;;;;;;24.30;8.43;;;3.60;99.90;;;;;;4975688;28;20458;-77
2022/01/06 10:31:31;;;;;;;15.60;7.77;;;3.60;99.90;;;;;;4975922;28;20586;-76
2022/01/06 10:33:58;;;;;;;17.70;8.30;;;3.70;99.90;;;;;;4975722;28;20559;-76
2022/01/06 10:36:32;;;;;;;28.67;10.60;;;3.70;99.90;;;;;;4975952;28;20443;-76
2022/01/06 10:39:01;;;;;;;16.77;8.17;;;3.80;99.90;;;;;;4975768;28;20544;-76
2022/01/06 10:41:32;;;;;;;15.23;8.90;;;3.80;99.90;;;;;;4975844;28;20448;-76
2022/01/06 10:44:00;;;;;;;16.33;8.07;;;3.80;99.90;;;;;;4975943;28;20482;-76
2022/01/06 10:46:29;;;;;;;21.37;8.30;;;3.90;99.90;;;;;;4975439;28;20483;-76
2022/01/06 10:49:00;;;;;;;17.27;7.40;;;4.00;99.90;;;;;;4975419;28;21007;-76
2022/01/06 10:51:51;;;;;;;16.97;6.80;;;4.10;99.90;;;;;;4975624;28;20492;-76
2022/01/06 10:54:22;;;;;;;13.83;6.20;;;4.20;99.90;;;;;;4961043;28;20566;-76
2022/01/06 10:57:01;;;;;;;16.63;5.80;;;4.10;99.90;;;;;;4975550;28;20460;-76
2022/01/06 10:59:32;;;;;;;15.97;6.00;;;4.10;99.90;;;;;;4975385;28;20548;-76
2022/01/06 11:01:59;;;;;;;9.33;4.80;;;4.00;99.90;;;;;;4975375;28;20518;-76
2022/01/06 11:04:26;;;;;;;16.70;5.30;;;4.00;99.90;;;;;;4975188;28;20479;-76
2022/01/06 11:06:53;;;;;;;15.13;5.40;;;4.10;99.90;;;;;;4975733;28;20534;-76
2022/01/06 11:09:21;;;;;;;12.30;5.00;;;4.10;99.90;;;;;;4974830;28;20534;-76
2022/01/06 11:14:33;;;;;;;11.83;5.30;;;4.20;99.90;;;;;;4968794;28;20818;-76
2022/01/06 11:17:00;;;;;;;13.80;5.63;;;4.20;99.90;;;;;;4975614;28;20510;-75
2022/01/06 11:19:30;;;;;;;16.13;7.60;;;4.20;99.90;;;;;;4974892;28;20498;-76
2022/01/06 11:22:03;;;;;;;12.27;5.20;;;4.20;99.90;;;;;;4975070;28;21130;-76
2022/01/06 11:24:30;;;;;;;20.87;5.60;;;4.30;99.90;;;;;;4975068;28;20578;-76
2022/01/06 11:26:59;;;;;;;13.97;5.67;;;4.40;99.90;;;;;;4975096;28;20455;-76
2022/01/06 11:29:27;;;;;;;7.57;4.00;;;4.50;99.90;;;;;;4974695;28;20914;-77
2022/01/06 11:31:56;;;;;;;7.87;4.40;;;4.50;99.90;;;;;;4974853;28;20495;-76
2022/01/06 11:34:23;;;;;;;17.17;4.20;;;4.50;99.90;;;;;;4974553;28;20499;-75
2022/01/06 11:36:54;;;;;;;16.07;4.17;;;4.60;99.90;;;;;;4974944;28;20487;-76
2022/01/06 11:39:23;;;;;;;12.13;4.10;;;4.50;99.90;;;;;;4974838;28;20519;-76
2022/01/06 11:41:52;;;;;;;10.83;4.37;;;4.50;99.90;;;;;;4974851;28;20448;-76
2022/01/06 11:44:21;;;;;;;14.07;4.20;;;4.50;99.90;;;;;;4974651;28;20531;-75
2022/01/06 11:46:50;;;;;;;14.33;4.53;;;4.50;99.90;;;;;;4974536;28;20462;-75
2022/01/06 11:49:34;;;;;;;19.03;4.50;;;4.60;99.90;;;;;;4974559;28;20863;-75
2022/01/06 11:52:09;;;;;;;11.40;3.80;;;4.60;99.90;;;;;;4974603;28;20531;-75
2022/01/06 11:54:47;;;;;;;12.17;3.97;;;4.60;99.90;;;;;;4974432;28;20550;-75
2022/01/06 11:57:15;;;;;;;15.53;4.00;;;4.60;99.90;;;;;;4974242;28;20538;-75
2022/01/06 11:59:42;;;;;;;15.17;3.70;;;4.60;99.90;;;;;;4973981;28;20539;-75
2022/01/06 12:02:09;;;;;;;14.30;4.17;;;4.70;99.90;;;;;;4974207;28;20487;-75
2022/01/06 12:04:41;;;;;;;6.77;3.77;;;4.80;99.90;;;;;;4974198;28;20554;-75
2022/01/06 12:07:10;;;;;;;9.90;4.23;;;5.00;99.90;;;;;;4974190;28;20928;-75
2022/01/06 12:09:37;;;;;;;8.57;4.43;;;5.20;99.90;;;;;;4973998;28;20458;-75
2022/01/06 12:12:09;;;;;;;11.63;3.63;;;5.30;99.90;;;;;;4974311;28;20574;-75
2022/01/06 12:14:36;;;;;;;8.50;3.30;;;5.30;99.90;;;;;;4974055;28;20559;-75
2022/01/06 12:17:05;;;;;;;8.90;3.50;;;5.30;99.90;;;;;;4974012;28;20534;-75
2022/01/06 12:19:32;;;;;;;9.10;3.30;;;5.30;99.90;;;;;;4973754;28;20881;-76
2022/01/06 12:22:00;;;;;;;10.00;3.90;;;5.40;99.90;;;;;;4974128;28;20752;-75
2022/01/06 12:24:34;;;;;;;8.03;4.13;;;5.30;99.90;;;;;;4973931;28;20483;-77
2022/01/06 12:27:03;;;;;;;9.53;3.90;;;5.30;99.90;;;;;;4973920;28;20455;-74
2022/01/06 12:29:34;;;;;;;10.33;3.77;;;5.30;99.90;;;;;;4973091;28;20542;-77
2022/01/06 12:32:06;;;;;;;13.13;3.70;;;5.10;99.90;;;;;;4974064;28;21099;-75
2022/01/06 12:34:33;;;;;;;8.30;3.77;;;5.00;99.90;;;;;;4973453;28;20915;-76
2022/01/06 12:37:01;;;;;;;15.77;4.63;;;5.10;99.90;;;;;;4973645;28;20535;-76
2022/01/06 12:39:28;;;;;;;9.73;5.47;;;5.00;99.90;;;;;;4973745;28;20486;-76
2022/01/06 12:41:55;;;;;;;17.67;4.50;;;4.90;99.90;;;;;;4973843;28;20448;-76
2022/01/06 12:44:27;;;;;;;43.10;27.33;;;4.90;99.90;;;;;;4973360;28;21070;-75
2022/01/06 12:46:54;;;;;;;12.40;5.50;;;4.90;99.90;;;;;;4973733;28;20519;-76
2022/01/06 12:49:22;;;;;;;10.83;4.27;;;4.90;99.90;;;;;;4973026;28;20502;-76
2022/01/06 12:51:49;;;;;;;11.60;5.37;;;4.80;99.90;;;;;;4973596;28;20498;-76
2022/01/06 12:54:19;;;;;;;10.67;5.17;;;4.90;99.90;;;;;;4973487;28;20566;-76
2022/01/06 12:56:50;;;;;;;9.23;4.20;;;4.90;99.90;;;;;;4973414;28;20452;-75
2022/01/06 12:59:21;;;;;;;11.57;9.13;;;4.90;99.90;;;;;;4973239;28;20456;-75
2022/01/06 13:01:54;;;;;;;15.77;6.63;;;5.00;99.90;;;;;;4972835;28;20856;-75
2022/01/06 13:04:24;;;;;;;10.80;4.67;;;4.90;99.90;;;;;;4973545;28;20499;-76
2022/01/06 13:06:54;;;;;;;14.60;8.10;;;4.90;99.90;;;;;;4973325;28;20460;-76
2022/01/06 13:09:24;;;;;;;12.80;6.53;;;5.00;99.90;;;;;;4973046;28;20540;-76
2022/01/06 13:11:53;;;;;;;13.07;4.87;;;5.00;99.90;;;;;;4973467;28;20491;-76
2022/01/06 13:14:31;;;;;;;6.93;4.13;;;5.00;99.90;;;;;;4972639;28;20511;-76
2022/01/06 13:17:10;;;;;;;12.20;5.33;;;5.00;99.90;;;;;;4972868;28;20858;-76
2022/01/06 13:19:42;;;;;;;15.47;6.17;;;4.90;99.90;;;;;;4972837;28;20554;-76
2022/01/06 13:22:15;;;;;;;11.33;4.37;;;4.90;99.90;;;;;;4973069;28;20452;-76
2022/01/06 13:24:44;;;;;;;24.33;12.13;;;4.90;99.90;;;;;;4972741;28;20555;-76
2022/01/06 13:27:12;;;;;;;19.30;16.23;;;5.00;99.90;;;;;;4973360;28;20448;-76
2022/01/06 13:29:41;;;;;;;24.57;15.20;;;5.10;99.90;;;;;;4972763;28;20539;-76
2022/01/06 13:32:11;;;;;;;8.57;4.47;;;5.20;99.90;;;;;;4972905;28;20599;-76
2022/01/06 13:34:40;;;;;;;6.97;4.33;;;5.30;99.90;;;;;;4972834;28;20766;-76
2022/01/06 13:37:10;;;;;;;11.80;3.90;;;5.30;99.90;;;;;;4972732;28;20542;-76
2022/01/06 13:39:40;;;;;;;11.47;4.13;;;5.30;99.90;;;;;;4972825;28;20535;-76
2022/01/06 13:42:10;;;;;;;9.70;4.40;;;5.30;99.90;;;;;;4977019;28;20538;-76
2022/01/06 13:44:38;;;;;;;23.30;17.60;;;5.30;99.90;;;;;;4976778;28;20551;-76
2022/01/06 13:47:11;;;;;;;58.47;30.30;;;5.30;99.90;;;;;;4976809;28;20542;-75
2022/01/06 13:52:26;;;;;;;9.27;3.93;;;5.40;99.90;;;;;;4976944;28;21003;-75
2022/01/06 13:54:55;;;;;;;13.43;3.60;;;5.40;99.90;;;;;;4976810;28;20471;-75
2022/01/06 13:57:23;;;;;;;11.63;3.70;;;5.40;99.90;;;;;;4976546;28;20543;-75
2022/01/06 13:59:50;;;;;;;9.93;4.13;;;5.40;99.90;;;;;;4976360;28;20483;-75
2022/01/06 14:02:24;;;;;;;23.80;12.87;;;5.30;99.90;;;;;;4976102;28;20538;-76
2022/01/06 14:04:51;;;;;;;26.23;10.70;;;5.30;99.90;;;;;;4976651;28;20904;-76
2022/01/06 14:07:18;;;;;;;9.30;4.67;;;5.30;99.90;;;;;;4976526;28;20494;-76
2022/01/06 14:09:45;;;;;;;12.73;4.30;;;5.30;99.90;;;;;;4976206;28;20487;-76
2022/01/06 14:12:12;;;;;;;11.83;3.90;;;5.20;99.90;;;;;;4976116;28;20582;-77
2022/01/06 14:14:41;;;;;;;12.20;4.73;;;5.20;99.90;;;;;;4975947;28;20486;-76
2022/01/06 14:17:08;;;;;;;11.03;4.27;;;5.10;99.90;;;;;;4976588;28;20487;-76
2022/01/06 14:19:38;;;;;;;10.53;4.40;;;5.20;99.90;;;;;;4976124;28;20459;-76
2022/01/06 14:22:05;;;;;;;14.80;4.00;;;5.20;99.90;;;;;;4976554;28;20452;-76
2022/01/06 14:24:34;;;;;;;10.90;4.33;;;5.20;99.90;;;;;;4976047;28;20907;-76
2022/01/06 14:27:02;;;;;;;8.27;3.50;;;5.30;99.90;;;;;;4975989;28;20948;-76
2022/01/06 14:29:29;;;;;;;9.73;3.77;;;5.30;99.90;;;;;;4975499;28;20471;-76
2022/01/06 14:31:57;;;;;;;13.13;4.13;;;5.30;99.90;;;;;;4975978;28;20962;-76
2022/01/06 14:34:25;;;;;;;14.87;3.97;;;5.30;99.90;;;;;;4976023;28;20562;-76
2022/01/06 14:36:52;;;;;;;9.50;3.70;;;5.30;99.90;;;;;;4975884;28;20483;-76
2022/01/06 14:39:19;;;;;;;7.10;3.13;;;5.30;99.90;;;;;;4975783;28;20460;-76
2022/01/06 14:41:46;;;;;;;10.80;3.80;;;5.20;99.90;;;;;;4975628;28;20463;-76
2022/01/06 14:44:13;;;;;;;10.70;3.10;;;5.20;99.90;;;;;;4975614;28;20922;-77
2022/01/06 14:46:41;;;;;;;13.37;4.40;;;5.20;99.90;;;;;;4975851;28;20483;-76
2022/01/06 14:49:09;;;;;;;15.20;4.20;;;5.20;99.90;;;;;;4975504;28;20821;-76
2022/01/06 14:51:36;;;;;;;24.27;13.13;;;5.30;99.90;;;;;;4975415;28;20594;-76
2022/01/06 14:54:03;;;;;;;11.93;5.83;;;5.20;99.90;;;;;;4975596;28;20558;-76
2022/01/06 14:56:30;;;;;;;14.13;5.20;;;5.30;99.90;;;;;;4975397;28;20539;-75
2022/01/06 14:58:57;;;;;;;17.50;5.03;;;5.30;99.90;;;;;;4975339;28;20531;-75
2022/01/06 15:01:24;;;;;;;13.63;4.97;;;5.30;99.90;;;;;;4975312;28;20539;-75
2022/01/06 15:03:51;;;;;;;6.37;3.57;;;5.30;99.90;;;;;;4975425;28;20550;-75
2022/01/06 15:06:19;;;;;;;14.17;4.53;;;5.30;99.90;;;;;;4975544;28;20498;-75
2022/01/06 15:08:46;;;;;;;14.63;4.57;;;5.30;99.90;;;;;;4975074;28;20535;-75
2022/01/06 15:11:13;;;;;;;10.80;4.50;;;5.30;99.90;;;;;;4974929;28;20499;-76
2022/01/06 15:13:40;;;;;;;12.43;4.33;;;5.40;99.90;;;;;;4975029;28;20547;-75
2022/01/06 15:16:07;;;;;;;10.83;4.57;;;5.30;99.90;;;;;;4975338;28;20459;-75
2022/01/06 15:18:34;;;;;;;10.70;5.90;;;5.40;99.90;;;;;;4975459;28;20487;-75
2022/01/06 15:21:02;;;;;;;12.43;5.53;;;5.30;99.90;;;;;;4974974;28;20487;-75
2022/01/06 15:23:31;;;;;;;12.70;5.77;;;5.30;99.90;;;;;;4974802;28;20542;-76
2022/01/06 15:25:58;;;;;;;20.27;6.07;;;5.30;99.90;;;;;;4974946;28;20952;-75
2022/01/06 15:28:24;;;;;;;13.40;5.60;;;5.30;99.90;;;;;;4975043;28;20543;-76
2022/01/06 15:30:51;;;;;;;12.80;5.27;;;5.20;99.90;;;;;;4974708;28;20476;-76
2022/01/06 15:33:18;;;;;;;17.10;5.73;;;5.20;99.90;;;;;;4974905;28;20822;-76
2022/01/06 15:35:50;;;;;;;16.57;5.77;;;5.20;99.90;;;;;;4974625;28;20487;-76
2022/01/06 15:38:17;;;;;;;14.50;5.60;;;5.20;99.90;;;;;;4974845;28;20452;-76
2022/01/06 15:40:46;;;;;;;19.47;5.53;;;5.10;99.90;;;;;;4974472;28;20487;-76
2022/01/06 15:43:14;;;;;;;12.80;6.10;;;5.10;99.90;;;;;;4974704;28;20452;-76
2022/01/06 15:45:41;;;;;;;15.17;5.80;;;5.00;99.90;;;;;;4974674;28;20555;-76
2022/01/06 15:48:09;;;;;;;12.03;5.73;;;5.00;99.90;;;;;;4974714;28;20483;-76
2022/01/06 15:50:39;;;;;;;9.40;5.90;;;5.00;99.90;;;;;;4974609;28;20510;-76
2022/01/06 15:53:07;;;;;;;11.03;6.30;;;4.90;99.90;;;;;;4974508;28;20498;-76
2022/01/06 15:55:34;;;;;;;12.97;6.10;;;4.90;99.90;;;;;;4974525;28;20554;-76
2022/01/06 15:58:02;;;;;;;20.87;6.70;;;4.90;99.90;;;;;;4974410;28;20867;-76
2022/01/06 16:00:38;;;;;;;15.37;6.33;;;4.90;99.90;;;;;;4973932;28;20495;-76
2022/01/06 16:05:51;;;;;;;30.43;10.30;;;4.80;99.90;;;;;;4974254;28;20423;-76
2022/01/06 16:08:19;;;;;;;20.93;8.93;;;4.80;99.90;;;;;;4974235;28;20452;-76
2022/01/06 16:10:48;;;;;;;17.50;8.57;;;4.70;99.90;;;;;;4973972;28;20539;-76
2022/01/06 16:13:17;;;;;;;21.00;8.77;;;4.70;99.90;;;;;;4974166;28;20583;-76
2022/01/06 16:15:44;;;;;;;18.27;8.67;;;4.70;99.90;;;;;;4975423;28;21047;-80
2022/01/06 16:18:11;;;;;;;29.37;8.40;;;4.60;99.90;;;;;;4977614;28;20487;-80
2022/01/06 16:20:38;;;;;;;22.50;9.63;;;4.60;99.90;;;;;;4977969;28;20479;-80
2022/01/06 16:23:08;;;;;;;26.60;10.57;;;4.50;99.90;;;;;;4977565;28;20532;-80
2022/01/06 16:25:35;;;;;;;20.70;9.80;;;4.50;99.90;;;;;;4978906;28;20559;-80
2022/01/06 16:28:02;;;;;;;17.30;9.70;;;4.40;99.90;;;;;;4978311;28;20482;-80
2022/01/06 16:30:43;;;;;;;22.70;11.50;;;4.30;99.90;;;;;;4977235;28;20539;-80
2022/01/06 16:33:10;;;;;;;21.53;12.13;;;4.30;99.90;;;;;;4977878;28;20492;-80
2022/01/06 16:35:38;;;;;;;22.27;11.63;;;4.20;99.90;;;;;;4977322;28;20522;-80
2022/01/06 16:38:05;;;;;;;20.77;11.63;;;4.20;99.90;;;;;;4980273;28;20448;-79
2022/01/06 16:40:32;;;;;;;19.40;11.80;;;4.10;99.90;;;;;;4980646;28;20538;-80
2022/01/06 16:43:00;;;;;;;26.63;14.10;;;4.10;99.90;;;;;;4981150;28;20532;-80
2022/01/06 16:45:27;;;;;;;24.03;12.20;;;4.10;99.90;;;;;;4980582;28;20905;-80
2022/01/06 16:47:55;;;;;;;20.57;13.13;;;4.10;99.90;;;;;;4980206;28;20488;-80
2022/01/06 16:50:22;;;;;;;21.97;12.00;;;4.00;99.90;;;;;;4976217;28;20542;-79
2022/01/06 16:52:52;;;;;;;17.67;11.03;;;3.90;99.90;;;;;;4975330;28;20567;-81
2022/01/06 16:55:19;;;;;;;14.30;9.90;;;3.90;99.90;;;;;;4977560;28;20526;-78
2022/01/06 16:57:46;;;;;;;25.10;14.40;;;3.90;99.90;;;;;;4973779;28;20490;-79
2022/01/06 17:00:14;;;;;;;20.83;10.80;;;3.90;99.90;;;;;;4974746;28;20479;-80
2022/01/06 17:02:42;;;;;;;15.77;9.10;;;3.80;99.90;;;;;;4978811;28;20491;-78
2022/01/06 17:05:11;;;;;;;19.27;9.93;;;3.70;99.90;;;;;;4973715;28;20544;-79
2022/01/06 17:07:40;;;;;;;20.33;11.27;;;3.70;99.90;;;;;;4974289;28;20558;-81
2022/01/06 17:10:08;;;;;;;19.67;10.10;;;3.70;99.90;;;;;;4975744;28;21051;-77
2022/01/06 17:12:35;;;;;;;18.60;11.60;;;3.60;99.90;;;;;;4973237;28;20583;-77
2022/01/06 17:15:03;;;;;;;18.53;9.00;;;3.60;99.90;;;;;;4997004;23;20591;-74
2022/01/06 17:17:30;;;;;;;17.90;9.03;;;3.60;99.90;;;;;;4973185;28;20927;-74
2022/01/06 17:19:57;;;;;;;19.00;8.90;;;3.60;99.90;;;;;;4972738;28;20455;-74
2022/01/06 17:22:25;;;;;;;23.73;9.47;;;3.50;99.90;;;;;;4973070;28;21030;-74
2022/01/06 17:24:52;;;;;;;17.87;8.70;;;3.40;99.90;;;;;;4973078;28;20554;-74
2022/01/06 17:27:19;;;;;;;16.70;10.03;;;3.40;99.90;;;;;;4973013;28;20487;-74
2022/01/06 17:29:46;;;;;;;30.13;13.43;;;3.30;99.90;;;;;;4972786;28;20483;-74
2022/01/06 17:32:13;;;;;;;20.73;12.00;;;3.20;99.90;;;;;;4973063;28;20587;-73
2022/01/06 17:34:41;;;;;;;20.47;12.33;;;3.10;99.90;;;;;;4972942;28;20563;-74
2022/01/06 17:37:08;;;;;;;28.93;12.60;;;3.10;99.90;;;;;;4973201;28;20452;-74
2022/01/06 17:39:36;;;;;;;18.97;12.50;;;3.10;99.90;;;;;;4972668;28;20511;-74
2022/01/06 17:42:04;;;;;;;17.10;11.13;;;3.10;99.90;;;;;;4973032;28;20491;-74
2022/01/06 17:44:31;;;;;;;15.47;8.57;;;3.00;99.90;;;;;;4972923;28;20564;-74
2022/01/06 17:46:58;;;;;;;20.00;9.60;;;3.00;99.90;;;;;;4972902;28;20535;-74
2022/01/06 17:49:25;;;;;;;14.23;8.40;;;3.00;99.90;;;;;;4972541;28;20889;-74
2022/01/06 17:51:51;;;;;;;18.57;10.40;;;3.00;99.90;;;;;;4972910;28;20569;-74
2022/01/06 17:54:18;;;;;;;23.90;10.50;;;2.90;99.90;;;;;;4972628;28;20503;-74
2022/01/06 17:56:47;;;;;;;17.60;10.10;;;2.90;99.90;;;;;;4973114;28;20483;-74
2022/01/06 17:59:14;;;;;;;23.40;12.13;;;2.90;99.90;;;;;;4972585;28;20901;-74
2022/01/06 18:01:40;;;;;;;35.13;16.53;;;2.80;99.90;;;;;;4972781;28;20543;-74